Artemis — SWZE — position and weather

sailwx.info

Track history (hours):
 
Tides and Currents Weather Stations Pressure Air Temp Water Temp Dewpoint Dewpoint Depression Visibility Wind Speed Wind Dir Waves Ship Positions

Artemis

Last reported at 2018-Jan-23 09:55 UTC. Time now 2018-Jan-23 10:19 UTC.
Position N 37°26' E 024°57'.

Length 90 m; draft 3.5 m.

Type: Ship. MMSI: 237026300.

Date/timePositionNaut miles runAvg speedWind from/ knotsBaromVisibWave heightAir tempDewpointWater temp
2018-Jan-23 09:55N 37°26' E 024°57'0 0.0
2018-Jan-23 08:25N 37°26' E 024°57'0 0.0
2018-Jan-23 07:43N 37°26' E 024°57'0 0.0
2018-Jan-23 07:23N 37°26' E 024°57'0 0.0
2018-Jan-23 05:55N 37°26' E 024°57'0 0.0
2018-Jan-23 05:26N 37°26' E 024°57'0 0.0
2018-Jan-23 04:29N 37°26' E 024°57'0 0.0
2018-Jan-23 03:50N 37°26' E 024°57'0 0.0
2018-Jan-23 01:45N 37°26' E 024°57'0 0.0
2018-Jan-23 01:09N 37°26' E 024°57'0 0.0
2018-Jan-23 00:21N 37°26' E 024°57'0 0.0
2018-Jan-22 23:57N 37°26' E 024°57'0 0.0
2018-Jan-22 23:15N 37°26' E 024°57'0 0.0
2018-Jan-22 22:57N 37°26' E 024°57'0 0.0
2018-Jan-22 22:30N 37°26' E 024°57'1 2.3
2018-Jan-22 22:00N 37°27' E 024°58'713.1
2018-Jan-22 21:29N 37°32' E 024°52'714.3
2018-Jan-22 21:00N 37°35' E 024°44'612.6
2018-Jan-22 20:30N 37°33' E 024°36'613.0
2018-Jan-22 20:01N 37°30' E 024°29'812.3
2018-Jan-22 19:22N 37°25' E 024°22'0 0.9
2018-Jan-22 18:49N 37°25' E 024°21'412.4
2018-Jan-22 18:30N 37°29' E 024°20'13 8.3
2018-Jan-22 16:56N 37°41' E 024°15'613.4
2018-Jan-22 16:30N 37°39' E 024°08'2 0.4
2018-Jan-22 10:49N 37°39' E 024°06'412.8
2018-Jan-22 10:30N 37°42' E 024°09'7 4.8
2018-Jan-22 09:00N 37°37' E 024°16'913.1
2018-Jan-22 08:20N 37°29' E 024°18'514.0
2018-Jan-22 08:00N 37°25' E 024°22'0 0.3
2018-Jan-22 07:31N 37°25' E 024°21'714.0
2018-Jan-22 07:00N 37°30' E 024°27'1114.5
2018-Jan-22 06:16N 37°31' E 024°41'514.5
2018-Jan-22 05:55N 37°31' E 024°47'714.2
2018-Jan-22 05:25N 37°30' E 024°56'4 8.7
2018-Jan-22 04:58N 37°26' E 024°56'0 0.4
2018-Jan-22 04:30N 37°26' E 024°57'0 0.0
2018-Jan-22 03:54N 37°26' E 024°57'0 0.0
2018-Jan-22 03:30N 37°26' E 024°57'0 0.0
2018-Jan-22 01:23N 37°26' E 024°57'0 0.0
2018-Jan-22 00:53N 37°26' E 024°57'0 0.0
2018-Jan-22 00:23N 37°26' E 024°57'0 0.0
2018-Jan-21 23:59N 37°26' E 024°57'0 0.0
2018-Jan-21 23:30N 37°26' E 024°57'0 0.1
2018-Jan-21 22:59N 37°26' E 024°57'4 8.4
2018-Jan-21 22:30N 37°23' E 024°59'714.7
2018-Jan-21 22:00N 37°16' E 025°03'714.9
2018-Jan-21 21:30N 37°09' E 025°06'4 8.7
2018-Jan-21 20:59N 37°05' E 025°09'612.9
2018-Jan-21 20:30N 37°07' E 025°01'714.6
2018-Jan-21 20:00N 37°07' E 024°52'714.6
2018-Jan-21 19:30N 37°07' E 024°43'714.4
2018-Jan-21 19:00N 37°07' E 024°34'2 3.1
2018-Jan-21 18:30N 37°06' E 024°33'814.9
2018-Jan-21 18:00N 37°00' E 024°39'2 4.9
2018-Jan-21 17:30N 36°58' E 024°38'714.9
2018-Jan-21 17:00N 36°50' E 024°37'5 9.3
2018-Jan-21 16:30N 36°46' E 024°35'713.7
2018-Jan-21 16:00N 36°47' E 024°26'3 6.1
2018-Jan-21 15:27N 36°43' E 024°27'0 0.0
2018-Jan-21 14:58N 36°43' E 024°27'1 3.1
2018-Jan-21 14:30N 36°44' E 024°25'5 9.5
2018-Jan-21 14:01N 36°47' E 024°29'510.0
2018-Jan-21 13:30N 36°47' E 024°35'713.9
2018-Jan-21 13:01N 36°54' E 024°38'611.2
2018-Jan-21 12:29N 36°59' E 024°40'3 5.2
2018-Jan-21 11:57N 37°01' E 024°38'613.7
2018-Jan-21 11:30N 37°06' E 024°33'1 2.6
2018-Jan-21 11:00N 37°07' E 024°34'714.6
2018-Jan-21 10:30N 37°07' E 024°43'714.6
2018-Jan-21 10:00N 37°07' E 024°52'714.6
2018-Jan-21 09:30N 37°06' E 025°01'6 8.5
2018-Jan-21 08:49N 37°05' E 025°08'413.3
2018-Jan-21 08:31N 37°09' E 025°06'714.3
2018-Jan-21 08:01N 37°15' E 025°03'714.3
2018-Jan-21 07:31N 37°22' E 024°60'5 9.6
2018-Jan-21 06:59N 37°26' E 024°56'0 0.0
2018-Jan-21 02:44N 37°26' E 024°56'1 6.1
2018-Jan-21 02:30N 37°26' E 024°58'714.2
2018-Jan-21 02:00N 37°19' E 025°01'714.6
2018-Jan-21 01:30N 37°12' E 025°04'714.6
2018-Jan-21 01:00N 37°05' E 025°08'3 6.0
2018-Jan-21 00:30N 37°06' E 025°04'714.4
2018-Jan-21 00:01N 37°03' E 024°56'714.5
2018-Jan-20 23:31N 37°01' E 024°47'713.7
2018-Jan-20 23:01N 37°03' E 024°39'612.9
2018-Jan-20 22:30N 37°07' E 024°32'1 2.8
2018-Jan-20 22:01N 37°05' E 024°32'914.2
2018-Jan-20 21:25N 36°60' E 024°40'0 0.2
2018-Jan-20 21:00N 36°60' E 024°40'714.0
2018-Jan-20 20:31N 36°53' E 024°38'612.5
2018-Jan-20 20:01N 36°47' E 024°35'9 5.4
2018-Jan-20 18:22N 36°45' E 024°24'410.5
2018-Jan-20 18:00N 36°47' E 024°28'510.5
2018-Jan-20 17:30N 36°47' E 024°35'1012.5
2018-Jan-20 16:43N 36°56' E 024°38'311.2
2018-Jan-20 16:25N 36°59' E 024°40'3 6.0
2018-Jan-20 15:56N 37°00' E 024°37'613.8
2018-Jan-20 15:30N 37°05' E 024°33'2 3.8
2018-Jan-20 15:00N 37°07' E 024°33'713.5
2018-Jan-20 14:30N 37°07' E 024°41'713.8
2018-Jan-20 14:00N 37°06' E 024°50'713.9
2018-Jan-20 13:30N 37°07' E 024°59'713.8
2018-Jan-20 13:00N 37°06' E 025°07'1 1.3
2018-Jan-20 12:30N 37°06' E 025°07'714.1
2018-Jan-20 12:01N 37°13' E 025°04'714.1
2018-Jan-20 11:30N 37°19' E 025°01'714.0
2018-Jan-20 11:00N 37°26' E 024°57'0 0.8
2018-Jan-20 10:28N 37°26' E 024°57'611.7
2018-Jan-20 09:55N 37°31' E 024°52'614.6
2018-Jan-20 09:30N 37°31' E 024°45'714.5
2018-Jan-20 09:00N 37°30' E 024°36'714.7
2018-Jan-20 08:30N 37°30' E 024°26'612.4
2018-Jan-20 08:00N 37°24' E 024°22'2 3.7
2018-Jan-20 07:30N 37°26' E 024°20'714.2
2018-Jan-20 07:00N 37°32' E 024°16'8 8.0
2018-Jan-20 05:57N 37°40' E 024°16'614.1
2018-Jan-20 05:31N 37°39' E 024°08'5 0.4
2018-Jan-19 18:01N 37°43' E 024°04'413.4
2018-Jan-19 17:44N 37°39' E 024°06'313.5
2018-Jan-19 17:30N 37°38' E 024°09'5 5.1
2018-Jan-19 16:32N 37°37' E 024°15'014.7
2018-Jan-19 16:30N 37°37' E 024°15'714.4
2018-Jan-19 16:00N 37°30' E 024°17'714.6
2018-Jan-19 15:30N 37°24' E 024°23'3 4.9
2018-Jan-19 14:55N 37°27' E 024°23'614.0
2018-Jan-19 14:30N 37°29' E 024°29'714.5
2018-Jan-19 14:00N 37°30' E 024°38'714.6
2018-Jan-19 13:31N 37°31' E 024°47'714.3
2018-Jan-19 13:00N 37°30' E 024°56'4 5.2
2018-Jan-19 12:16N 37°27' E 024°57'0 0.4
2018-Jan-19 11:56N 37°26' E 024°57'0 0.0
2018-Jan-19 11:20N 37°26' E 024°57'0 0.0
2018-Jan-19 10:20N 37°26' E 024°57'0 0.0
2018-Jan-19 09:50N 37°26' E 024°57'0 0.0
2018-Jan-19 09:14N 37°26' E 024°57'0 0.0
2018-Jan-19 08:56N 37°26' E 024°57'0 0.0
2018-Jan-19 08:20N 37°26' E 024°57'0 0.0
2018-Jan-19 07:56N 37°26' E 024°57'0 0.0
2018-Jan-19 07:20N 37°26' E 024°57'0 0.0
2018-Jan-19 06:45N 37°26' E 024°57'0 0.0
2018-Jan-19 06:20N 37°26' E 024°57'0 0.0
2018-Jan-19 05:57N 37°26' E 024°57'0 0.0
2018-Jan-19 05:26N 37°26' E 024°57'0 0.0
2018-Jan-19 04:57N 37°26' E 024°57'0 0.0
2018-Jan-19 04:26N 37°26' E 024°57'0 0.0
2018-Jan-19 03:56N 37°26' E 024°57'0 0.0
2018-Jan-19 03:26N 37°26' E 024°57'0 0.0
2018-Jan-19 02:45N 37°26' E 024°57'0 0.0
2018-Jan-19 02:14N 37°26' E 024°57'0 0.0
2018-Jan-19 01:57N 37°26' E 024°57'0 0.0
2018-Jan-19 01:21N 37°26' E 024°57'0 0.0
2018-Jan-19 00:57N 37°26' E 024°57'0 0.0
2018-Jan-19 00:26N 37°26' E 024°57'0 0.0
2018-Jan-18 23:56N 37°26' E 024°57'0 0.0
2018-Jan-18 23:26N 37°26' E 024°57'0 0.0
2018-Jan-18 22:51N 37°26' E 024°57'0 0.0
2018-Jan-18 22:20N 37°26' E 024°57'0 0.0
2018-Jan-18 21:57N 37°26' E 024°57'0 0.0
2018-Jan-18 21:15N 37°26' E 024°57'0 0.0
2018-Jan-18 20:57N 37°26' E 024°57'0 0.0
2018-Jan-18 20:26N 37°26' E 024°57'0 0.0
2018-Jan-18 19:56N 37°26' E 024°57'0 0.0
2018-Jan-18 19:27N 37°26' E 024°57'0 0.0
2018-Jan-18 18:51N 37°26' E 024°57'0 0.0
2018-Jan-18 18:27N 37°26' E 024°57'0 0.0
2018-Jan-18 17:56N 37°26' E 024°57'0 0.0
2018-Jan-18 17:26N 37°26' E 024°57'0 0.0
2018-Jan-18 16:57N 37°26' E 024°57'0 0.0
2018-Jan-18 16:26N 37°26' E 024°57'0 0.0
2018-Jan-18 15:57N 37°26' E 024°57'0 0.0
2018-Jan-18 15:02N 37°26' E 024°57'0 0.0
2018-Jan-18 14:56N 37°26' E 024°57'0 0.0
2018-Jan-18 14:09N 37°26' E 024°57'0 0.0
2018-Jan-18 13:56N 37°26' E 024°57'0 0.0
2018-Jan-18 12:09N 37°26' E 024°57'0 0.0
2018-Jan-18 11:50N 37°26' E 024°57'0 0.0
2018-Jan-18 10:27N 37°26' E 024°57'0 0.0
2018-Jan-18 00:30N 37°26' E 024°57'  
Track history (hours):
 
Tides and Currents Weather Stations Pressure Air Temp Water Temp Dewpoint Dewpoint Depression Visibility Wind Speed Wind Dir Waves Ship Positions

Artemis

Last reported at 2018-Jan-23 09:55 UTC. Time now 2018-Jan-23 10:19 UTC.
Position N 37°26' E 024°57'.

Length 90 m; draft 3.5 m.

Type: Ship. MMSI: 237026300.

Date/timePositionNaut miles runAvg speedWind from/ knotsBaromVisibWave heightAir tempDewpointWater temp
2018-Jan-23 09:55N 37°26' E 024°57'0 0.0
2018-Jan-23 08:25N 37°26' E 024°57'0 0.0
2018-Jan-23 07:43N 37°26' E 024°57'0 0.0
2018-Jan-23 07:23N 37°26' E 024°57'0 0.0
2018-Jan-23 05:55N 37°26' E 024°57'0 0.0
2018-Jan-23 05:26N 37°26' E 024°57'0 0.0
2018-Jan-23 04:29N 37°26' E 024°57'0 0.0
2018-Jan-23 03:50N 37°26' E 024°57'0 0.0
2018-Jan-23 01:45N 37°26' E 024°57'0 0.0
2018-Jan-23 01:09N 37°26' E 024°57'0 0.0
2018-Jan-23 00:21N 37°26' E 024°57'0 0.0
2018-Jan-22 23:57N 37°26' E 024°57'0 0.0
2018-Jan-22 23:15N 37°26' E 024°57'0 0.0
2018-Jan-22 22:57N 37°26' E 024°57'0 0.0
2018-Jan-22 22:30N 37°26' E 024°57'1 2.3
2018-Jan-22 22:00N 37°27' E 024°58'713.1
2018-Jan-22 21:29N 37°32' E 024°52'714.3
2018-Jan-22 21:00N 37°35' E 024°44'612.6
2018-Jan-22 20:30N 37°33' E 024°36'613.0
2018-Jan-22 20:01N 37°30' E 024°29'812.3
2018-Jan-22 19:22N 37°25' E 024°22'0 0.9
2018-Jan-22 18:49N 37°25' E 024°21'412.4
2018-Jan-22 18:30N 37°29' E 024°20'13 8.3
2018-Jan-22 16:56N 37°41' E 024°15'613.4
2018-Jan-22 16:30N 37°39' E 024°08'2 0.4
2018-Jan-22 10:49N 37°39' E 024°06'412.8
2018-Jan-22 10:30N 37°42' E 024°09'7 4.8
2018-Jan-22 09:00N 37°37' E 024°16'913.1
2018-Jan-22 08:20N 37°29' E 024°18'514.0
2018-Jan-22 08:00N 37°25' E 024°22'0 0.3
2018-Jan-22 07:31N 37°25' E 024°21'714.0
2018-Jan-22 07:00N 37°30' E 024°27'1114.5
2018-Jan-22 06:16N 37°31' E 024°41'514.5
2018-Jan-22 05:55N 37°31' E 024°47'714.2
2018-Jan-22 05:25N 37°30' E 024°56'4 8.7
2018-Jan-22 04:58N 37°26' E 024°56'0 0.4
2018-Jan-22 04:30N 37°26' E 024°57'0 0.0
2018-Jan-22 03:54N 37°26' E 024°57'0 0.0
2018-Jan-22 03:30N 37°26' E 024°57'0 0.0
2018-Jan-22 01:23N 37°26' E 024°57'0 0.0
2018-Jan-22 00:53N 37°26' E 024°57'0 0.0
2018-Jan-22 00:23N 37°26' E 024°57'0 0.0
2018-Jan-21 23:59N 37°26' E 024°57'0 0.0
2018-Jan-21 23:30N 37°26' E 024°57'0 0.1
2018-Jan-21 22:59N 37°26' E 024°57'4 8.4
2018-Jan-21 22:30N 37°23' E 024°59'714.7
2018-Jan-21 22:00N 37°16' E 025°03'714.9
2018-Jan-21 21:30N 37°09' E 025°06'4 8.7
2018-Jan-21 20:59N 37°05' E 025°09'612.9
2018-Jan-21 20:30N 37°07' E 025°01'714.6
2018-Jan-21 20:00N 37°07' E 024°52'714.6
2018-Jan-21 19:30N 37°07' E 024°43'714.4
2018-Jan-21 19:00N 37°07' E 024°34'2 3.1
2018-Jan-21 18:30N 37°06' E 024°33'814.9
2018-Jan-21 18:00N 37°00' E 024°39'2 4.9
2018-Jan-21 17:30N 36°58' E 024°38'714.9
2018-Jan-21 17:00N 36°50' E 024°37'5 9.3
2018-Jan-21 16:30N 36°46' E 024°35'713.7
2018-Jan-21 16:00N 36°47' E 024°26'3 6.1
2018-Jan-21 15:27N 36°43' E 024°27'0 0.0
2018-Jan-21 14:58N 36°43' E 024°27'1 3.1
2018-Jan-21 14:30N 36°44' E 024°25'5 9.5
2018-Jan-21 14:01N 36°47' E 024°29'510.0
2018-Jan-21 13:30N 36°47' E 024°35'713.9
2018-Jan-21 13:01N 36°54' E 024°38'611.2
2018-Jan-21 12:29N 36°59' E 024°40'3 5.2
2018-Jan-21 11:57N 37°01' E 024°38'613.7
2018-Jan-21 11:30N 37°06' E 024°33'1 2.6
2018-Jan-21 11:00N 37°07' E 024°34'714.6
2018-Jan-21 10:30N 37°07' E 024°43'714.6
2018-Jan-21 10:00N 37°07' E 024°52'714.6
2018-Jan-21 09:30N 37°06' E 025°01'6 8.5
2018-Jan-21 08:49N 37°05' E 025°08'413.3
2018-Jan-21 08:31N 37°09' E 025°06'714.3
2018-Jan-21 08:01N 37°15' E 025°03'714.3
2018-Jan-21 07:31N 37°22' E 024°60'5 9.6
2018-Jan-21 06:59N 37°26' E 024°56'0 0.0
2018-Jan-21 02:44N 37°26' E 024°56'1 6.1
2018-Jan-21 02:30N 37°26' E 024°58'714.2
2018-Jan-21 02:00N 37°19' E 025°01'714.6
2018-Jan-21 01:30N 37°12' E 025°04'714.6
2018-Jan-21 01:00N 37°05' E 025°08'3 6.0
2018-Jan-21 00:30N 37°06' E 025°04'714.4
2018-Jan-21 00:01N 37°03' E 024°56'714.5
2018-Jan-20 23:31N 37°01' E 024°47'713.7
2018-Jan-20 23:01N 37°03' E 024°39'612.9
2018-Jan-20 22:30N 37°07' E 024°32'1 2.8
2018-Jan-20 22:01N 37°05' E 024°32'914.2
2018-Jan-20 21:25N 36°60' E 024°40'0 0.2
2018-Jan-20 21:00N 36°60' E 024°40'714.0
2018-Jan-20 20:31N 36°53' E 024°38'612.5
2018-Jan-20 20:01N 36°47' E 024°35'9 5.4
2018-Jan-20 18:22N 36°45' E 024°24'410.5
2018-Jan-20 18:00N 36°47' E 024°28'510.5
2018-Jan-20 17:30N 36°47' E 024°35'1012.5
2018-Jan-20 16:43N 36°56' E 024°38'311.2
2018-Jan-20 16:25N 36°59' E 024°40'3 6.0
2018-Jan-20 15:56N 37°00' E 024°37'613.8
2018-Jan-20 15:30N 37°05' E 024°33'2 3.8
2018-Jan-20 15:00N 37°07' E 024°33'713.5
2018-Jan-20 14:30N 37°07' E 024°41'713.8
2018-Jan-20 14:00N 37°06' E 024°50'713.9
2018-Jan-20 13:30N 37°07' E 024°59'713.8
2018-Jan-20 13:00N 37°06' E 025°07'1 1.3
2018-Jan-20 12:30N 37°06' E 025°07'714.1
2018-Jan-20 12:01N 37°13' E 025°04'714.1
2018-Jan-20 11:30N 37°19' E 025°01'714.0
2018-Jan-20 11:00N 37°26' E 024°57'0 0.8
2018-Jan-20 10:28N 37°26' E 024°57'611.7
2018-Jan-20 09:55N 37°31' E 024°52'614.6
2018-Jan-20 09:30N 37°31' E 024°45'714.5
2018-Jan-20 09:00N 37°30' E 024°36'714.7
2018-Jan-20 08:30N 37°30' E 024°26'612.4
2018-Jan-20 08:00N 37°24' E 024°22'2 3.7
2018-Jan-20 07:30N 37°26' E 024°20'714.2
2018-Jan-20 07:00N 37°32' E 024°16'8 8.0
2018-Jan-20 05:57N 37°40' E 024°16'614.1
2018-Jan-20 05:31N 37°39' E 024°08'5 0.4
2018-Jan-19 18:01N 37°43' E 024°04'413.4
2018-Jan-19 17:44N 37°39' E 024°06'313.5
2018-Jan-19 17:30N 37°38' E 024°09'5 5.1
2018-Jan-19 16:32N 37°37' E 024°15'014.7
2018-Jan-19 16:30N 37°37' E 024°15'714.4
2018-Jan-19 16:00N 37°30' E 024°17'714.6
2018-Jan-19 15:30N 37°24' E 024°23'3 4.9
2018-Jan-19 14:55N 37°27' E 024°23'614.0
2018-Jan-19 14:30N 37°29' E 024°29'714.5
2018-Jan-19 14:00N 37°30' E 024°38'714.6
2018-Jan-19 13:31N 37°31' E 024°47'714.3
2018-Jan-19 13:00N 37°30' E 024°56'4 5.2
2018-Jan-19 12:16N 37°27' E 024°57'0 0.4
2018-Jan-19 11:56N 37°26' E 024°57'0 0.0
2018-Jan-19 11:20N 37°26' E 024°57'0 0.0
2018-Jan-19 10:20N 37°26' E 024°57'0 0.0
2018-Jan-19 09:50N 37°26' E 024°57'0 0.0
2018-Jan-19 09:14N 37°26' E 024°57'0 0.0
2018-Jan-19 08:56N 37°26' E 024°57'0 0.0
2018-Jan-19 08:20N 37°26' E 024°57'0 0.0
2018-Jan-19 07:56N 37°26' E 024°57'0 0.0
2018-Jan-19 07:20N 37°26' E 024°57'0 0.0
2018-Jan-19 06:45N 37°26' E 024°57'0 0.0
2018-Jan-19 06:20N 37°26' E 024°57'0 0.0
2018-Jan-19 05:57N 37°26' E 024°57'0 0.0
2018-Jan-19 05:26N 37°26' E 024°57'0 0.0
2018-Jan-19 04:57N 37°26' E 024°57'0 0.0
2018-Jan-19 04:26N 37°26' E 024°57'0 0.0
2018-Jan-19 03:56N 37°26' E 024°57'0 0.0
2018-Jan-19 03:26N 37°26' E 024°57'0 0.0
2018-Jan-19 02:45N 37°26' E 024°57'0 0.0
2018-Jan-19 02:14N 37°26' E 024°57'0 0.0
2018-Jan-19 01:57N 37°26' E 024°57'0 0.0
2018-Jan-19 01:21N 37°26' E 024°57'0 0.0
2018-Jan-19 00:57N 37°26' E 024°57'0 0.0
2018-Jan-19 00:26N 37°26' E 024°57'0 0.0
2018-Jan-18 23:56N 37°26' E 024°57'0 0.0
2018-Jan-18 23:26N 37°26' E 024°57'0 0.0
2018-Jan-18 22:51N 37°26' E 024°57'0 0.0
2018-Jan-18 22:20N 37°26' E 024°57'0 0.0
2018-Jan-18 21:57N 37°26' E 024°57'0 0.0
2018-Jan-18 21:15N 37°26' E 024°57'0 0.0
2018-Jan-18 20:57N 37°26' E 024°57'0 0.0
2018-Jan-18 20:26N 37°26' E 024°57'0 0.0
2018-Jan-18 19:56N 37°26' E 024°57'0 0.0
2018-Jan-18 19:27N 37°26' E 024°57'0 0.0
2018-Jan-18 18:51N 37°26' E 024°57'0 0.0
2018-Jan-18 18:27N 37°26' E 024°57'0 0.0
2018-Jan-18 17:56N 37°26' E 024°57'0 0.0
2018-Jan-18 17:26N 37°26' E 024°57'0 0.0
2018-Jan-18 16:57N 37°26' E 024°57'0 0.0
2018-Jan-18 16:26N 37°26' E 024°57'0 0.0
2018-Jan-18 15:57N 37°26' E 024°57'0 0.0
2018-Jan-18 15:02N 37°26' E 024°57'0 0.0
2018-Jan-18 14:56N 37°26' E 024°57'0 0.0
2018-Jan-18 14:09N 37°26' E 024°57'0 0.0
2018-Jan-18 13:56N 37°26' E 024°57'0 0.0
2018-Jan-18 12:09N 37°26' E 024°57'0 0.0
2018-Jan-18 11:50N 37°26' E 024°57'0 0.0
2018-Jan-18 10:27N 37°26' E 024°57'0 0.0
2018-Jan-18 00:30N 37°26' E 024°57'  

Dump ship's entire track history